createdAt,value
2022-09-24T00:03:23.835Z,99.90
2022-09-24T00:08:17.643Z,99.90
2022-09-24T00:13:13.330Z,99.90
2022-09-24T00:18:07.993Z,99.90
2022-09-24T00:23:01.560Z,99.90
2022-09-24T00:27:53.796Z,99.90
2022-09-24T00:32:46.048Z,99.90
2022-09-24T00:37:43.951Z,99.90
2022-09-24T00:42:36.424Z,99.90
2022-09-24T00:48:09.140Z,99.90
2022-09-24T00:53:09.765Z,99.90
2022-09-24T00:58:06.105Z,99.90
2022-09-24T01:03:23.267Z,99.90
2022-09-24T01:08:17.579Z,99.90
2022-09-24T01:13:44.987Z,99.90
2022-09-24T01:19:14.438Z,99.90
2022-09-24T01:24:14.485Z,99.90
2022-09-24T01:29:28.482Z,99.90
2022-09-24T01:34:27.188Z,99.90
2022-09-24T01:39:21.051Z,99.90
2022-09-24T01:44:13.944Z,99.90
2022-09-24T01:49:07.370Z,99.90
2022-09-24T01:54:23.983Z,99.90
2022-09-24T01:59:34.682Z,99.90
2022-09-24T02:04:28.638Z,99.90
2022-09-24T02:09:38.566Z,99.90
2022-09-24T02:14:32.581Z,99.90
2022-09-24T02:19:28.986Z,99.90
2022-09-24T02:24:25.879Z,99.90
2022-09-24T02:29:21.003Z,99.90
2022-09-24T02:34:22.629Z,99.90
2022-09-24T02:39:14.881Z,99.90
2022-09-24T02:45:03.479Z,99.90
2022-09-24T02:51:10.553Z,99.90
2022-09-24T02:57:18.503Z,99.90
2022-09-24T03:03:25.563Z,99.90
2022-09-24T03:09:33.789Z,99.90
2022-09-24T03:15:40.885Z,99.90
2022-09-24T03:21:48.241Z,99.90
2022-09-24T03:27:56.421Z,99.90
2022-09-24T03:34:03.727Z,99.90
2022-09-24T03:40:11.535Z,99.90
2022-09-24T03:46:18.482Z,99.90
2022-09-24T03:52:25.530Z,99.90
2022-09-24T03:58:32.883Z,99.90
2022-09-24T04:04:39.933Z,99.90
2022-09-24T04:10:47.035Z,99.90
2022-09-24T04:16:54.147Z,99.90
2022-09-24T04:23:01.422Z,99.90
2022-09-24T04:29:08.469Z,99.90
2022-09-24T04:35:15.844Z,99.90
2022-09-24T04:41:22.812Z,99.90
2022-09-24T04:46:34.519Z,99.90
2022-09-24T04:51:27.304Z,99.90
2022-09-24T04:56:19.534Z,99.90
2022-09-24T05:01:13.576Z,99.90
2022-09-24T05:06:06.731Z,99.90
2022-09-24T05:10:59.058Z,99.90
2022-09-24T05:15:51.368Z,99.90
2022-09-24T05:20:43.601Z,99.90
2022-09-24T05:25:56.006Z,99.90
2022-09-24T05:30:48.677Z,99.90
2022-09-24T05:35:40.905Z,99.90
2022-09-24T05:40:48.321Z,99.90
2022-09-24T05:45:42.445Z,99.90
2022-09-24T05:50:35.141Z,99.90
2022-09-24T05:55:32.214Z,99.90
2022-09-24T06:00:25.007Z,99.90
2022-09-24T06:05:17.798Z,99.90
2022-09-24T06:10:10.574Z,99.90
2022-09-24T06:15:03.345Z,99.90
2022-09-24T06:19:58.110Z,99.90
2022-09-24T06:24:51.490Z,99.90
2022-09-24T06:29:43.818Z,99.90
2022-09-24T06:34:36.151Z,99.90
2022-09-24T06:39:28.676Z,99.90
2022-09-24T06:45:16.747Z,99.90
2022-09-24T06:51:24.511Z,99.90
2022-09-24T06:57:31.527Z,99.90
2022-09-24T07:03:38.970Z,99.90
2022-09-24T07:09:45.872Z,99.90
2022-09-24T07:15:53.294Z,99.90
2022-09-24T07:22:00.186Z,93.20
2022-09-24T07:28:08.660Z,76.10
2022-09-24T07:34:15.625Z,74.90
2022-09-24T07:40:22.770Z,78.70
2022-09-24T07:46:29.761Z,72.40
2022-09-24T07:52:37.016Z,69.70
2022-09-24T07:58:44.493Z,77.10
2022-09-24T08:04:51.592Z,85.80
2022-09-24T08:17:07.975Z,93.80
2022-09-24T08:23:14.828Z,96.80
2022-09-24T08:29:22.129Z,96.80
2022-09-24T08:35:29.341Z,97.00
2022-09-24T08:41:21.356Z,96.70
2022-09-24T08:46:50.293Z,96.10
2022-09-24T08:52:02.943Z,98.00
2022-09-24T08:56:57.371Z,99.90
2022-09-24T09:02:13.656Z,99.90
2022-09-24T09:07:20.518Z,94.80
2022-09-24T09:12:26.713Z,85.70
2022-09-24T09:17:42.811Z,84.70
2022-09-24T09:22:41.833Z,84.50
2022-09-24T09:27:34.242Z,86.00
2022-09-24T09:32:32.704Z,88.00
2022-09-24T09:37:36.619Z,83.10
2022-09-24T09:42:37.562Z,80.30
2022-09-24T09:47:46.191Z,78.70
2022-09-24T09:52:40.270Z,79.70
2022-09-24T09:57:36.149Z,82.00
2022-09-24T10:02:33.706Z,82.40
2022-09-24T10:07:26.224Z,77.90
2022-09-24T10:12:24.472Z,74.40
2022-09-24T10:17:19.461Z,70.20
2022-09-24T10:22:25.434Z,64.60
2022-09-24T10:27:37.714Z,55.60
2022-09-24T10:32:30.357Z,53.50
2022-09-24T10:37:22.976Z,50.50
2022-09-24T10:42:26.794Z,50.40
2022-09-24T10:47:45.203Z,50.20
2022-09-24T10:53:21.290Z,54.00
2022-09-24T10:59:29.365Z,52.40
2022-09-24T11:05:36.562Z,49.50
2022-09-24T11:11:43.614Z,49.10
2022-09-24T11:17:52.367Z,47.10
2022-09-24T11:23:59.686Z,46.40
2022-09-24T11:30:06.890Z,46.00
2022-09-24T11:36:13.797Z,46.50
2022-09-24T11:42:20.947Z,49.30
2022-09-24T11:48:28.451Z,51.80
2022-09-24T11:54:35.926Z,54.80
2022-09-24T12:00:43.250Z,58.90
2022-09-24T12:06:50.477Z,62.80
2022-09-24T12:12:59.087Z,65.00
2022-09-24T12:19:07.225Z,65.80
2022-09-24T12:25:14.687Z,68.30
2022-09-24T12:31:22.926Z,68.50
2022-09-24T12:37:30.143Z,69.20
2022-09-24T12:43:37.453Z,69.70
2022-09-24T12:49:44.786Z,71.60
2022-09-24T12:55:02.642Z,70.30
2022-09-24T13:00:04.155Z,71.00
2022-09-24T13:05:02.891Z,71.50
2022-09-24T13:09:55.193Z,70.50
2022-09-24T13:15:08.750Z,71.70
2022-09-24T13:20:09.370Z,70.10
2022-09-24T13:25:08.211Z,70.00
2022-09-24T13:30:12.927Z,71.90
2022-09-24T13:35:11.687Z,70.70
2022-09-24T13:40:20.324Z,67.40
2022-09-24T13:45:20.283Z,69.20
2022-09-24T13:50:16.017Z,71.50
2022-09-24T13:55:31.487Z,71.70
2022-09-24T14:00:29.567Z,71.20
2022-09-24T14:05:24.158Z,72.60
2022-09-24T14:10:17.549Z,73.50
2022-09-24T14:15:18.681Z,74.30
2022-09-24T14:20:16.231Z,73.80
2022-09-24T14:25:18.261Z,74.20
2022-09-24T14:30:22.283Z,74.10
2022-09-24T14:35:21.556Z,73.50
2022-09-24T14:40:20.192Z,74.60
2022-09-24T14:45:25.182Z,73.50
2022-09-24T14:50:43.983Z,76.10
2022-09-24T14:55:42.012Z,76.20
2022-09-24T15:00:49.027Z,76.60
2022-09-24T15:05:41.673Z,77.10
2022-09-24T15:10:34.551Z,76.40
2022-09-24T15:15:32.277Z,77.70
2022-09-24T15:20:24.888Z,77.70
2022-09-24T15:25:17.480Z,79.00
2022-09-24T15:30:20.119Z,78.80
2022-09-24T15:35:16.413Z,78.80
2022-09-24T15:40:17.958Z,82.20
2022-09-24T15:45:25.320Z,83.50
2022-09-24T15:50:19.498Z,85.80
2022-09-24T15:55:21.663Z,87.90
2022-09-24T16:00:19.624Z,90.40
2022-09-24T16:05:14.377Z,91.20
2022-09-24T16:10:07.918Z,92.90
2022-09-24T16:15:01.201Z,95.20
2022-09-24T16:19:54.220Z,99.90
2022-09-24T16:24:49.759Z,99.90
2022-09-24T16:29:45.345Z,99.90
2022-09-24T16:34:41.462Z,99.90
2022-09-24T16:39:34.014Z,99.90
2022-09-24T16:44:26.357Z,99.90
2022-09-24T16:49:26.823Z,99.90
2022-09-24T16:54:20.267Z,99.90
2022-09-24T16:59:16.970Z,99.90
2022-09-24T17:04:09.794Z,99.90
2022-09-24T17:09:22.590Z,99.90
2022-09-24T17:14:16.743Z,99.90
2022-09-24T17:19:10.873Z,99.90
2022-09-24T17:24:04.216Z,99.90
2022-09-24T17:28:57.135Z,99.90
2022-09-24T17:34:18.895Z,99.90
2022-09-24T17:39:13.545Z,99.90
2022-09-24T17:44:07.404Z,99.90
2022-09-24T17:49:00.763Z,99.90
2022-09-24T17:53:56.718Z,99.90
2022-09-24T17:58:49.383Z,99.90
2022-09-24T18:04:38.470Z,99.90
2022-09-24T18:10:45.465Z,99.90
2022-09-24T18:16:55.589Z,99.90
2022-09-24T18:23:04.426Z,99.90
2022-09-24T18:29:13.253Z,99.90
2022-09-24T18:35:20.477Z,99.90
2022-09-24T18:41:31.157Z,99.90
2022-09-24T18:47:38.153Z,99.90
2022-09-24T18:53:46.759Z,99.90
2022-09-24T18:59:54.041Z,99.90
2022-09-24T19:06:01.137Z,99.90
2022-09-24T19:12:08.223Z,99.90
2022-09-24T19:18:15.643Z,99.90
2022-09-24T19:24:22.804Z,99.90
2022-09-24T19:30:29.898Z,99.90
2022-09-24T19:36:43.063Z,99.90
2022-09-24T19:42:50.759Z,99.90
2022-09-24T19:48:59.130Z,99.90
2022-09-24T19:55:07.435Z,99.90
2022-09-24T20:01:18.187Z,99.90
2022-09-24T20:06:48.202Z,99.90
2022-09-24T20:11:40.711Z,99.90
2022-09-24T20:16:33.392Z,99.90
2022-09-24T20:21:28.476Z,99.90
2022-09-24T20:26:39.711Z,99.90
2022-09-24T20:31:33.802Z,99.90
2022-09-24T20:36:26.696Z,99.90
2022-09-24T20:41:23.156Z,99.90
2022-09-24T20:46:22.200Z,99.90
2022-09-24T20:51:18.539Z,99.90
2022-09-24T20:56:11.814Z,99.90
2022-09-24T21:01:04.661Z,99.90
2022-09-24T21:06:17.137Z,99.90
2022-09-24T21:11:12.559Z,99.90
2022-09-24T21:16:05.359Z,99.90
2022-09-24T21:21:02.237Z,99.90
2022-09-24T21:25:55.111Z,99.90
2022-09-24T21:30:58.298Z,99.90
2022-09-24T21:35:50.615Z,99.90
2022-09-24T21:40:43.201Z,99.90
2022-09-24T21:45:35.517Z,99.90
2022-09-24T21:50:28.357Z,99.90
2022-09-24T21:55:20.517Z,99.90
2022-09-24T22:00:13.914Z,99.90
2022-09-24T22:05:06.793Z,99.90
2022-09-24T22:09:58.926Z,99.90
2022-09-24T22:14:52.482Z,99.90
2022-09-24T22:19:44.681Z,99.90
2022-09-24T22:24:36.979Z,99.90
2022-09-24T22:29:29.256Z,99.90
2022-09-24T22:34:39.809Z,99.90
2022-09-24T22:39:33.234Z,99.90
2022-09-24T22:44:25.456Z,99.90
2022-09-24T22:49:17.633Z,99.90
2022-09-24T22:54:10.052Z,99.90
2022-09-24T22:59:02.550Z,99.90
2022-09-24T23:03:56.342Z,99.90
2022-09-24T23:08:49.389Z,99.90
2022-09-24T23:13:44.042Z,99.90
2022-09-24T23:18:37.893Z,99.90
2022-09-24T23:24:26.551Z,99.90
2022-09-24T23:30:34.191Z,99.90
2022-09-24T23:36:42.626Z,99.90
2022-09-24T23:42:49.873Z,99.90
2022-09-24T23:48:56.935Z,99.90
2022-09-24T23:55:04.230Z,99.90
